sensor_id;sensor_type;location;lat;lon;timestamp;pressure;altitude;pressure_sealevel;temperature;humidity
13414;BME280;6778;48.136;11.386;2023-01-04T00:00:13;96582.28;;;5.06;96.67
13414;BME280;6778;48.136;11.386;2023-01-04T00:02:44;96588.41;;;4.97;96.62
13414;BME280;6778;48.136;11.386;2023-01-04T00:05:16;96586.00;;;5.03;96.60
13414;BME280;6778;48.136;11.386;2023-01-04T00:07:47;96584.28;;;4.94;95.83
13414;BME280;6778;48.136;11.386;2023-01-04T00:10:17;96568.66;;;4.86;96.19
13414;BME280;6778;48.136;11.386;2023-01-04T00:12:49;96573.41;;;4.90;96.45
13414;BME280;6778;48.136;11.386;2023-01-04T00:15:22;96572.06;;;4.86;96.82
13414;BME280;6778;48.136;11.386;2023-01-04T00:17:52;96577.56;;;4.83;96.98
13414;BME280;6778;48.136;11.386;2023-01-04T00:20:22;96571.78;;;4.89;96.94
13414;BME280;6778;48.136;11.386;2023-01-04T00:22:54;96581.63;;;4.86;96.95
13414;BME280;6778;48.136;11.386;2023-01-04T00:25:26;96580.31;;;4.82;96.85
13414;BME280;6778;48.136;11.386;2023-01-04T00:27:56;96579.94;;;4.77;96.33
13414;BME280;6778;48.136;11.386;2023-01-04T00:30:29;96575.50;;;4.69;95.94
13414;BME280;6778;48.136;11.386;2023-01-04T00:32:59;96572.22;;;4.67;95.62
13414;BME280;6778;48.136;11.386;2023-01-04T00:35:29;96574.09;;;4.57;95.23
13414;BME280;6778;48.136;11.386;2023-01-04T00:38:12;96571.13;;;4.52;95.64
13414;BME280;6778;48.136;11.386;2023-01-04T00:40:42;96569.56;;;4.59;95.28
13414;BME280;6778;48.136;11.386;2023-01-04T00:43:12;96577.50;;;4.57;95.33
13414;BME280;6778;48.136;11.386;2023-01-04T00:45:45;96565.50;;;4.56;95.78
13414;BME280;6778;48.136;11.386;2023-01-04T00:48:15;96559.75;;;4.53;95.86
13414;BME280;6778;48.136;11.386;2023-01-04T00:50:49;96561.69;;;4.51;96.28
13414;BME280;6778;48.136;11.386;2023-01-04T00:53:18;96558.72;;;4.46;96.01
13414;BME280;6778;48.136;11.386;2023-01-04T00:55:51;96552.41;;;4.30;95.34
13414;BME280;6778;48.136;11.386;2023-01-04T00:58:21;96549.31;;;3.99;96.98
13414;BME280;6778;48.136;11.386;2023-01-04T01:00:54;96546.22;;;3.96;99.71
13414;BME280;6778;48.136;11.386;2023-01-04T01:03:24;96551.78;;;4.01;100.00
13414;BME280;6778;48.136;11.386;2023-01-04T01:06:00;96548.09;;;4.03;99.46
13414;BME280;6778;48.136;11.386;2023-01-04T01:08:31;96560.91;;;4.05;97.46
13414;BME280;6778;48.136;11.386;2023-01-04T01:11:04;96561.59;;;4.07;96.11
13414;BME280;6778;48.136;11.386;2023-01-04T01:13:36;96558.03;;;4.08;95.57
13414;BME280;6778;48.136;11.386;2023-01-04T01:16:11;96557.34;;;4.06;95.75
13414;BME280;6778;48.136;11.386;2023-01-04T01:18:43;96575.28;;;4.17;96.21
13414;BME280;6778;48.136;11.386;2023-01-04T01:21:16;96576.69;;;4.11;95.96
13414;BME280;6778;48.136;11.386;2023-01-04T01:23:50;96570.44;;;4.04;95.27
13414;BME280;6778;48.136;11.386;2023-01-04T01:26:23;96577.03;;;3.99;95.38
13414;BME280;6778;48.136;11.386;2023-01-04T01:28:54;96562.50;;;3.88;95.29
13414;BME280;6778;48.136;11.386;2023-01-04T01:31:28;96575.97;;;3.92;95.29
13414;BME280;6778;48.136;11.386;2023-01-04T01:34:00;96566.41;;;3.92;95.32
13414;BME280;6778;48.136;11.386;2023-01-04T01:36:30;96571.31;;;3.95;95.54
13414;BME280;6778;48.136;11.386;2023-01-04T01:39:01;96581.28;;;4.00;96.32
13414;BME280;6778;48.136;11.386;2023-01-04T01:41:33;96581.84;;;3.94;96.57
13414;BME280;6778;48.136;11.386;2023-01-04T01:44:06;96591.16;;;3.87;96.58
13414;BME280;6778;48.136;11.386;2023-01-04T01:46:59;96579.44;;;3.82;96.49
13414;BME280;6778;48.136;11.386;2023-01-04T01:49:33;96574.81;;;3.76;95.76
13414;BME280;6778;48.136;11.386;2023-01-04T01:52:09;96565.81;;;3.71;95.91
13414;BME280;6778;48.136;11.386;2023-01-04T01:54:44;96564.50;;;3.67;95.73
13414;BME280;6778;48.136;11.386;2023-01-04T01:57:18;96565.25;;;3.77;95.65
13414;BME280;6778;48.136;11.386;2023-01-04T01:59:52;96574.47;;;3.62;95.94
13414;BME280;6778;48.136;11.386;2023-01-04T02:02:29;96582.94;;;3.54;95.73
13414;BME280;6778;48.136;11.386;2023-01-04T02:05:01;96581.44;;;3.51;96.49
13414;BME280;6778;48.136;11.386;2023-01-04T02:07:35;96582.59;;;3.39;98.44
13414;BME280;6778;48.136;11.386;2023-01-04T02:10:07;96575.69;;;3.58;97.93
13414;BME280;6778;48.136;11.386;2023-01-04T02:12:37;96567.75;;;3.69;97.93
13414;BME280;6778;48.136;11.386;2023-01-04T02:15:11;96566.31;;;3.84;97.31
13414;BME280;6778;48.136;11.386;2023-01-04T02:17:54;96567.75;;;3.96;97.35
13414;BME280;6778;48.136;11.386;2023-01-04T02:20:37;96561.38;;;3.91;97.19
13414;BME280;6778;48.136;11.386;2023-01-04T02:30:05;96537.94;;;4.10;97.22
13414;BME280;6778;48.136;11.386;2023-01-04T02:33:03;96532.88;;;3.91;98.39
13414;BME280;6778;48.136;11.386;2023-01-04T02:35:44;96542.00;;;3.95;98.16
13414;BME280;6778;48.136;11.386;2023-01-04T02:38:23;96540.03;;;4.06;98.18
13414;BME280;6778;48.136;11.386;2023-01-04T02:41:04;96549.53;;;4.16;97.50
13414;BME280;6778;48.136;11.386;2023-01-04T02:43:44;96547.19;;;4.13;97.09
13414;BME280;6778;48.136;11.386;2023-01-04T02:46:34;96546.72;;;3.99;97.34
13414;BME280;6778;48.136;11.386;2023-01-04T02:49:11;96541.03;;;3.96;97.27
13414;BME280;6778;48.136;11.386;2023-01-04T02:51:53;96537.09;;;3.92;97.19
13414;BME280;6778;48.136;11.386;2023-01-04T02:54:27;96519.81;;;3.82;97.79
13414;BME280;6778;48.136;11.386;2023-01-04T02:57:16;96526.69;;;3.74;97.93
13414;BME280;6778;48.136;11.386;2023-01-04T03:00:14;96522.66;;;3.62;98.68
13414;BME280;6778;48.136;11.386;2023-01-04T03:06:09;96511.88;;;3.66;99.37
13414;BME280;6778;48.136;11.386;2023-01-04T03:08:53;96513.34;;;3.69;99.48
13414;BME280;6778;48.136;11.386;2023-01-04T03:11:36;96511.16;;;3.74;98.89
13414;BME280;6778;48.136;11.386;2023-01-04T03:14:27;96517.16;;;3.74;98.68
13414;BME280;6778;48.136;11.386;2023-01-04T03:17:03;96521.75;;;3.80;98.62
13414;BME280;6778;48.136;11.386;2023-01-04T03:19:36;96528.66;;;3.90;98.71
13414;BME280;6778;48.136;11.386;2023-01-04T03:22:33;96521.41;;;3.93;99.24
13414;BME280;6778;48.136;11.386;2023-01-04T03:25:21;96530.38;;;3.99;99.46
13414;BME280;6778;48.136;11.386;2023-01-04T03:28:09;96522.81;;;4.05;99.35
13414;BME280;6778;48.136;11.386;2023-01-04T03:30:57;96526.19;;;4.16;99.15
13414;BME280;6778;48.136;11.386;2023-01-04T03:33:45;96524.47;;;4.24;99.24
13414;BME280;6778;48.136;11.386;2023-01-04T03:36:45;96519.13;;;4.26;99.24
13414;BME280;6778;48.136;11.386;2023-01-04T03:39:32;96517.09;;;4.29;98.78
13414;BME280;6778;48.136;11.386;2023-01-04T03:42:21;96516.94;;;4.31;98.40
13414;BME280;6778;48.136;11.386;2023-01-04T03:45:16;96513.13;;;4.25;98.44
13414;BME280;6778;48.136;11.386;2023-01-04T03:48:06;96509.72;;;4.25;98.84
13414;BME280;6778;48.136;11.386;2023-01-04T03:50:59;96506.19;;;4.26;98.69
13414;BME280;6778;48.136;11.386;2023-01-04T03:53:36;96494.19;;;4.25;98.57
13414;BME280;6778;48.136;11.386;2023-01-04T03:56:12;96488.03;;;4.26;98.53
13414;BME280;6778;48.136;11.386;2023-01-04T03:58:44;96485.44;;;4.26;98.38
13414;BME280;6778;48.136;11.386;2023-01-04T04:01:17;96481.38;;;4.23;98.43
13414;BME280;6778;48.136;11.386;2023-01-04T04:03:48;96476.50;;;4.20;98.33
13414;BME280;6778;48.136;11.386;2023-01-04T04:06:31;96478.25;;;4.20;98.48
13414;BME280;6778;48.136;11.386;2023-01-04T04:09:14;96470.78;;;4.17;98.36
13414;BME280;6778;48.136;11.386;2023-01-04T04:11:47;96466.41;;;4.17;98.62
13414;BME280;6778;48.136;11.386;2023-01-04T04:14:17;96475.66;;;4.20;98.59
13414;BME280;6778;48.136;11.386;2023-01-04T04:16:48;96470.47;;;4.20;98.54
13414;BME280;6778;48.136;11.386;2023-01-04T04:19:19;96471.31;;;4.20;98.47
13414;BME280;6778;48.136;11.386;2023-01-04T04:21:49;96469.81;;;4.18;98.44
13414;BME280;6778;48.136;11.386;2023-01-04T04:24:25;96468.84;;;4.19;98.50
13414;BME280;6778;48.136;11.386;2023-01-04T04:26:59;96465.00;;;4.23;98.24
13414;BME280;6778;48.136;11.386;2023-01-04T04:29:29;96465.59;;;4.17;98.53
13414;BME280;6778;48.136;11.386;2023-01-04T04:32:00;96466.72;;;4.14;98.57
13414;BME280;6778;48.136;11.386;2023-01-04T04:34:30;96457.72;;;3.91;98.98
13414;BME280;6778;48.136;11.386;2023-01-04T04:37:02;96452.84;;;4.05;98.88
13414;BME280;6778;48.136;11.386;2023-01-04T04:39:32;96452.97;;;4.04;98.99
13414;BME280;6778;48.136;11.386;2023-01-04T04:42:05;96450.41;;;4.04;98.89
13414;BME280;6778;48.136;11.386;2023-01-04T04:44:35;96452.31;;;4.02;98.94
13414;BME280;6778;48.136;11.386;2023-01-04T04:47:05;96441.00;;;4.03;98.89
13414;BME280;6778;48.136;11.386;2023-01-04T04:49:36;96435.81;;;4.03;98.63
13414;BME280;6778;48.136;11.386;2023-01-04T04:52:06;96428.84;;;4.03;98.45
13414;BME280;6778;48.136;11.386;2023-01-04T04:54:36;96432.25;;;4.04;98.42
13414;BME280;6778;48.136;11.386;2023-01-04T04:57:09;96428.56;;;4.06;98.06
13414;BME280;6778;48.136;11.386;2023-01-04T04:59:39;96423.38;;;4.06;97.89
13414;BME280;6778;48.136;11.386;2023-01-04T05:02:09;96427.88;;;4.04;98.04
13414;BME280;6778;48.136;11.386;2023-01-04T05:04:40;96429.50;;;4.05;98.23
13414;BME280;6778;48.136;11.386;2023-01-04T05:07:10;96432.09;;;4.05;98.11
13414;BME280;6778;48.136;11.386;2023-01-04T05:09:40;96443.97;;;4.08;97.97
13414;BME280;6778;48.136;11.386;2023-01-04T05:12:13;96443.97;;;4.08;98.03
13414;BME280;6778;48.136;11.386;2023-01-04T05:14:56;96440.56;;;4.07;97.79
13414;BME280;6778;48.136;11.386;2023-01-04T05:17:26;96442.84;;;4.10;97.68
13414;BME280;6778;48.136;11.386;2023-01-04T05:19:57;96435.38;;;4.07;97.78
13414;BME280;6778;48.136;11.386;2023-01-04T05:22:27;96443.28;;;4.06;97.75
13414;BME280;6778;48.136;11.386;2023-01-04T05:24:57;96441.38;;;4.08;97.80
13414;BME280;6778;48.136;11.386;2023-01-04T05:27:29;96444.94;;;4.07;97.39
13414;BME280;6778;48.136;11.386;2023-01-04T05:29:59;96440.91;;;3.95;97.67
13414;BME280;6778;48.136;11.386;2023-01-04T05:32:42;96434.91;;;3.94;98.10
13414;BME280;6778;48.136;11.386;2023-01-04T05:35:13;96442.31;;;3.89;97.89
13414;BME280;6778;48.136;11.386;2023-01-04T05:37:42;96438.25;;;3.87;98.05
13414;BME280;6778;48.136;11.386;2023-01-04T05:40:13;96440.47;;;3.81;98.11
13414;BME280;6778;48.136;11.386;2023-01-04T05:42:46;96449.31;;;3.79;98.17
13414;BME280;6778;48.136;11.386;2023-01-04T05:45:19;96441.84;;;3.76;98.15
13414;BME280;6778;48.136;11.386;2023-01-04T05:47:51;96450.28;;;3.78;97.99
13414;BME280;6778;48.136;11.386;2023-01-04T05:50:23;96445.69;;;3.72;98.20
13414;BME280;6778;48.136;11.386;2023-01-04T05:52:53;96444.78;;;3.63;98.31
13414;BME280;6778;48.136;11.386;2023-01-04T05:55:24;96443.00;;;3.64;98.35
13414;BME280;6778;48.136;11.386;2023-01-04T05:57:56;96446.50;;;3.72;97.82
13414;BME280;6778;48.136;11.386;2023-01-04T06:00:26;96446.59;;;3.80;97.57
13414;BME280;6778;48.136;11.386;2023-01-04T06:02:58;96452.44;;;3.82;97.72
13414;BME280;6778;48.136;11.386;2023-01-04T06:05:28;96460.63;;;3.88;97.51
13414;BME280;6778;48.136;11.386;2023-01-04T06:07:58;96451.72;;;3.90;97.56
13414;BME280;6778;48.136;11.386;2023-01-04T06:10:28;96459.22;;;3.93;97.74
13414;BME280;6778;48.136;11.386;2023-01-04T06:13:01;96453.72;;;3.96;97.88
13414;BME280;6778;48.136;11.386;2023-01-04T06:15:31;96461.06;;;4.01;98.00
13414;BME280;6778;48.136;11.386;2023-01-04T06:18:09;96457.19;;;4.05;97.72
13414;BME280;6778;48.136;11.386;2023-01-04T06:20:41;96454.03;;;4.11;97.62
13414;BME280;6778;48.136;11.386;2023-01-04T06:23:12;96455.44;;;4.05;98.09
13414;BME280;6778;48.136;11.386;2023-01-04T06:25:43;96459.38;;;4.09;98.44
13414;BME280;6778;48.136;11.386;2023-01-04T06:28:19;96462.34;;;4.15;98.35
13414;BME280;6778;48.136;11.386;2023-01-04T06:30:51;96456.22;;;4.06;98.35
13414;BME280;6778;48.136;11.386;2023-01-04T06:33:21;96451.28;;;4.13;98.73
13414;BME280;6778;48.136;11.386;2023-01-04T06:35:55;96446.56;;;4.08;98.90
13414;BME280;6778;48.136;11.386;2023-01-04T06:38:25;96439.75;;;4.07;99.02
13414;BME280;6778;48.136;11.386;2023-01-04T06:40:56;96441.72;;;4.13;98.86
13414;BME280;6778;48.136;11.386;2023-01-04T06:43:28;96435.88;;;4.11;98.91
13414;BME280;6778;48.136;11.386;2023-01-04T06:45:59;96437.28;;;4.23;98.62
13414;BME280;6778;48.136;11.386;2023-01-04T06:48:32;96434.31;;;4.36;97.98
13414;BME280;6778;48.136;11.386;2023-01-04T06:51:04;96436.09;;;4.35;98.04
13414;BME280;6778;48.136;11.386;2023-01-04T06:53:35;96434.81;;;4.39;98.36
13414;BME280;6778;48.136;11.386;2023-01-04T06:56:07;96427.72;;;4.42;98.32
13414;BME280;6778;48.136;11.386;2023-01-04T06:58:40;96418.16;;;4.42;98.29
13414;BME280;6778;48.136;11.386;2023-01-04T07:01:10;96415.72;;;4.41;99.25
13414;BME280;6778;48.136;11.386;2023-01-04T07:03:42;96412.50;;;4.47;98.97
13414;BME280;6778;48.136;11.386;2023-01-04T07:06:13;96419.38;;;4.56;98.92
13414;BME280;6778;48.136;11.386;2023-01-04T07:08:45;96418.25;;;4.58;99.05
13414;BME280;6778;48.136;11.386;2023-01-04T07:11:17;96410.84;;;4.63;98.57
13414;BME280;6778;48.136;11.386;2023-01-04T07:13:50;96422.03;;;4.64;98.58
13414;BME280;6778;48.136;11.386;2023-01-04T07:16:20;96415.44;;;4.70;98.73
13414;BME280;6778;48.136;11.386;2023-01-04T07:18:55;96413.50;;;4.72;98.80
13414;BME280;6778;48.136;11.386;2023-01-04T07:21:25;96407.47;;;4.71;98.79
13414;BME280;6778;48.136;11.386;2023-01-04T07:23:56;96415.91;;;4.73;98.66
13414;BME280;6778;48.136;11.386;2023-01-04T07:26:28;96411.63;;;4.82;98.23
13414;BME280;6778;48.136;11.386;2023-01-04T07:29:00;96411.09;;;5.04;97.40
13414;BME280;6778;48.136;11.386;2023-01-04T07:31:45;96414.06;;;5.68;94.77
13414;BME280;6778;48.136;11.386;2023-01-04T07:34:17;96416.16;;;6.47;90.61
13414;BME280;6778;48.136;11.386;2023-01-04T07:36:48;96414.78;;;7.00;87.28
13414;BME280;6778;48.136;11.386;2023-01-04T07:39:19;96403.28;;;7.34;84.63
13414;BME280;6778;48.136;11.386;2023-01-04T07:41:54;96404.81;;;7.59;83.34
13414;BME280;6778;48.136;11.386;2023-01-04T07:44:27;96409.72;;;8.08;81.35
13414;BME280;6778;48.136;11.386;2023-01-04T07:46:58;96402.06;;;8.53;79.56
13414;BME280;6778;48.136;11.386;2023-01-04T07:49:33;96404.44;;;8.62;77.35
13414;BME280;6778;48.136;11.386;2023-01-04T07:52:03;96388.19;;;8.29;77.72
13414;BME280;6778;48.136;11.386;2023-01-04T07:54:34;96392.38;;;8.15;79.81
13414;BME280;6778;48.136;11.386;2023-01-04T07:57:09;96384.56;;;8.38;79.30
13414;BME280;6778;48.136;11.386;2023-01-04T07:59:45;96383.69;;;9.28;74.42
13414;BME280;6778;48.136;11.386;2023-01-04T08:02:18;96373.94;;;9.73;72.95
13414;BME280;6778;48.136;11.386;2023-01-04T08:04:48;96373.97;;;10.16;70.81
13414;BME280;6778;48.136;11.386;2023-01-04T08:07:18;96366.47;;;10.83;68.66
13414;BME280;6778;48.136;11.386;2023-01-04T08:09:49;96382.97;;;11.46;66.85
13414;BME280;6778;48.136;11.386;2023-01-04T08:12:18;96376.91;;;11.94;64.91
13414;BME280;6778;48.136;11.386;2023-01-04T08:14:51;96378.09;;;11.91;64.09
13414;BME280;6778;48.136;11.386;2023-01-04T08:17:22;96383.03;;;12.21;62.68
13414;BME280;6778;48.136;11.386;2023-01-04T08:19:52;96382.59;;;12.24;62.63
13414;BME280;6778;48.136;11.386;2023-01-04T08:22:25;96378.78;;;12.73;61.18
13414;BME280;6778;48.136;11.386;2023-01-04T08:24:56;96375.31;;;12.99;60.02
13414;BME280;6778;48.136;11.386;2023-01-04T08:27:26;96377.78;;;12.74;59.82
13414;BME280;6778;48.136;11.386;2023-01-04T08:30:00;96370.06;;;13.77;57.93
13414;BME280;6778;48.136;11.386;2023-01-04T08:32:30;96377.75;;;13.72;57.92
13414;BME280;6778;48.136;11.386;2023-01-04T08:35:00;96381.16;;;13.21;59.47
13414;BME280;6778;48.136;11.386;2023-01-04T08:37:30;96371.94;;;14.01;57.01
13414;BME280;6778;48.136;11.386;2023-01-04T08:40:01;96359.41;;;15.03;54.40
13414;BME280;6778;48.136;11.386;2023-01-04T08:42:31;96371.66;;;15.16;53.65
13414;BME280;6778;48.136;11.386;2023-01-04T08:45:07;96374.22;;;15.04;52.87
13414;BME280;6778;48.136;11.386;2023-01-04T08:47:37;96365.25;;;13.60;56.96
13414;BME280;6778;48.136;11.386;2023-01-04T08:50:13;96384.84;;;12.80;59.80
13414;BME280;6778;48.136;11.386;2023-01-04T08:52:46;96373.69;;;13.11;58.77
13414;BME280;6778;48.136;11.386;2023-01-04T08:55:16;96371.84;;;13.18;58.16
13414;BME280;6778;48.136;11.386;2023-01-04T08:57:49;96375.53;;;12.31;61.26
13414;BME280;6778;48.136;11.386;2023-01-04T09:00:22;96370.50;;;12.36;61.03
13414;BME280;6778;48.136;11.386;2023-01-04T09:02:52;96371.09;;;12.91;59.61
13414;BME280;6778;48.136;11.386;2023-01-04T09:05:22;96357.00;;;13.50;57.81
13414;BME280;6778;48.136;11.386;2023-01-04T09:07:52;96361.78;;;12.89;59.33
13414;BME280;6778;48.136;11.386;2023-01-04T09:10:23;96355.72;;;13.01;58.96
13414;BME280;6778;48.136;11.386;2023-01-04T09:12:53;96354.66;;;13.29;57.63
13414;BME280;6778;48.136;11.386;2023-01-04T09:15:26;96362.16;;;14.90;54.36
13414;BME280;6778;48.136;11.386;2023-01-04T09:18:01;96353.84;;;15.29;52.20
13414;BME280;6778;48.136;11.386;2023-01-04T09:20:53;96355.19;;;16.17;49.48
13414;BME280;6778;48.136;11.386;2023-01-04T09:23:23;96354.38;;;15.75;50.34
13414;BME280;6778;48.136;11.386;2023-01-04T09:25:54;96355.91;;;17.25;47.42
13414;BME280;6778;48.136;11.386;2023-01-04T09:28:29;96365.91;;;17.23;46.66
13414;BME280;6778;48.136;11.386;2023-01-04T09:31:06;96366.66;;;18.27;44.52
13414;BME280;6778;48.136;11.386;2023-01-04T09:33:36;96357.78;;;19.39;41.37
13414;BME280;6778;48.136;11.386;2023-01-04T09:36:27;96361.94;;;18.00;43.44
13414;BME280;6778;48.136;11.386;2023-01-04T09:38:57;96370.19;;;15.01;51.04
13414;BME280;6778;48.136;11.386;2023-01-04T09:41:29;96363.59;;;14.11;54.00
13414;BME280;6778;48.136;11.386;2023-01-04T09:44:03;96361.44;;;13.56;55.07
13414;BME280;6778;48.136;11.386;2023-01-04T09:46:51;96359.94;;;13.09;56.71
13414;BME280;6778;48.136;11.386;2023-01-04T09:49:29;96361.81;;;12.69;58.83
13414;BME280;6778;48.136;11.386;2023-01-04T09:52:08;96353.72;;;12.37;59.43
13414;BME280;6778;48.136;11.386;2023-01-04T09:54:44;96355.31;;;12.18;60.34
13414;BME280;6778;48.136;11.386;2023-01-04T09:57:26;96352.69;;;12.12;61.21
13414;BME280;6778;48.136;11.386;2023-01-04T10:00:04;96351.97;;;11.76;61.71
13414;BME280;6778;48.136;11.386;2023-01-04T10:02:43;96348.63;;;11.89;61.63
13414;BME280;6778;48.136;11.386;2023-01-04T10:05:20;96340.22;;;11.59;62.45
13414;BME280;6778;48.136;11.386;2023-01-04T10:07:50;96337.19;;;11.62;62.68
13414;BME280;6778;48.136;11.386;2023-01-04T10:10:44;96337.31;;;11.34;63.21
13414;BME280;6778;48.136;11.386;2023-01-04T10:13:31;96337.59;;;11.59;62.96
13414;BME280;6778;48.136;11.386;2023-01-04T10:16:15;96335.53;;;12.16;61.10
13414;BME280;6778;48.136;11.386;2023-01-04T10:19:24;96339.78;;;12.70;59.52
13414;BME280;6778;48.136;11.386;2023-01-04T10:22:26;96317.63;;;13.24;57.45
13414;BME280;6778;48.136;11.386;2023-01-04T10:25:26;96315.34;;;14.10;55.13
13414;BME280;6778;48.136;11.386;2023-01-04T10:28:15;96305.19;;;13.82;55.19
13414;BME280;6778;48.136;11.386;2023-01-04T10:30:59;96298.91;;;13.83;56.03
13414;BME280;6778;48.136;11.386;2023-01-04T10:33:59;96299.16;;;13.75;55.81
13414;BME280;6778;48.136;11.386;2023-01-04T10:36:36;96296.34;;;13.19;57.29
13414;BME280;6778;48.136;11.386;2023-01-04T10:39:14;96288.59;;;12.66;59.20
13414;BME280;6778;48.136;11.386;2023-01-04T10:41:51;96299.56;;;12.23;59.84
13414;BME280;6778;48.136;11.386;2023-01-04T10:44:31;96293.22;;;11.71;62.15
13414;BME280;6778;48.136;11.386;2023-01-04T10:47:09;96286.09;;;11.45;63.40
13414;BME280;6778;48.136;11.386;2023-01-04T10:49:47;96280.16;;;11.23;64.43
13414;BME280;6778;48.136;11.386;2023-01-04T10:52:26;96276.69;;;11.16;64.69
13414;BME280;6778;48.136;11.386;2023-01-04T10:55:02;96263.91;;;10.93;65.74
13414;BME280;6778;48.136;11.386;2023-01-04T10:57:39;96267.88;;;10.82;65.97
13414;BME280;6778;48.136;11.386;2023-01-04T11:00:17;96260.19;;;10.74;67.08
13414;BME280;6778;48.136;11.386;2023-01-04T11:03:00;96251.91;;;10.71;67.18
13414;BME280;6778;48.136;11.386;2023-01-04T11:05:42;96256.72;;;10.67;66.99
13414;BME280;6778;48.136;11.386;2023-01-04T11:08:22;96249.63;;;10.61;66.34
13414;BME280;6778;48.136;11.386;2023-01-04T11:10:58;96244.97;;;10.56;66.53
13414;BME280;6778;48.136;11.386;2023-01-04T11:13:31;96248.59;;;10.55;66.90
13414;BME280;6778;48.136;11.386;2023-01-04T11:16:03;96231.06;;;10.56;66.39
13414;BME280;6778;48.136;11.386;2023-01-04T11:18:37;96239.75;;;10.63;64.84
13414;BME280;6778;48.136;11.386;2023-01-04T11:21:11;96230.84;;;10.51;65.55
13414;BME280;6778;48.136;11.386;2023-01-04T11:23:46;96218.16;;;10.54;64.42
13414;BME280;6778;48.136;11.386;2023-01-04T11:26:19;96216.72;;;10.45;64.79
13414;BME280;6778;48.136;11.386;2023-01-04T11:28:56;96208.38;;;10.35;64.51
13414;BME280;6778;48.136;11.386;2023-01-04T11:31:40;96220.09;;;10.39;64.36
13414;BME280;6778;48.136;11.386;2023-01-04T11:34:13;96219.38;;;10.52;64.82
13414;BME280;6778;48.136;11.386;2023-01-04T11:36:45;96223.03;;;10.57;64.67
13414;BME280;6778;48.136;11.386;2023-01-04T11:39:22;96206.72;;;10.62;63.73
13414;BME280;6778;48.136;11.386;2023-01-04T11:41:56;96211.63;;;10.78;63.06
13414;BME280;6778;48.136;11.386;2023-01-04T11:44:30;96206.41;;;10.78;62.41
13414;BME280;6778;48.136;11.386;2023-01-04T11:47:06;96199.94;;;10.81;62.79
13414;BME280;6778;48.136;11.386;2023-01-04T11:49:37;96200.97;;;10.86;62.03
13414;BME280;6778;48.136;11.386;2023-01-04T11:52:28;96182.78;;;10.72;61.88
13414;BME280;6778;48.136;11.386;2023-01-04T11:55:19;96182.22;;;10.89;62.23
13414;BME280;6778;48.136;11.386;2023-01-04T11:58:05;96177.38;;;10.86;61.15
13414;BME280;6778;48.136;11.386;2023-01-04T12:00:35;96170.22;;;11.28;61.60
13414;BME280;6778;48.136;11.386;2023-01-04T12:03:12;96168.69;;;11.93;59.07
13414;BME280;6778;48.136;11.386;2023-01-04T12:05:44;96175.09;;;11.58;59.11
13414;BME280;6778;48.136;11.386;2023-01-04T12:08:27;96170.03;;;12.29;57.58
13414;BME280;6778;48.136;11.386;2023-01-04T12:11:04;96174.03;;;12.45;57.36
13414;BME280;6778;48.136;11.386;2023-01-04T12:13:36;96171.00;;;12.41;56.45
13414;BME280;6778;48.136;11.386;2023-01-04T12:16:18;96162.38;;;12.14;56.70
13414;BME280;6778;48.136;11.386;2023-01-04T12:18:50;96153.06;;;12.12;56.30
13414;BME280;6778;48.136;11.386;2023-01-04T12:21:23;96143.63;;;11.91;55.43
13414;BME280;6778;48.136;11.386;2023-01-04T12:23:54;96144.56;;;12.23;54.84
13414;BME280;6778;48.136;11.386;2023-01-04T12:26:27;96139.31;;;12.29;55.37
13414;BME280;6778;48.136;11.386;2023-01-04T12:34:57;96131.91;;;12.07;54.81
13414;BME280;6778;48.136;11.386;2023-01-04T12:37:43;96126.25;;;11.83;54.44
13414;BME280;6778;48.136;11.386;2023-01-04T12:43:25;96127.44;;;11.21;55.47
13414;BME280;6778;48.136;11.386;2023-01-04T12:49:48;96115.72;;;11.17;54.90
13414;BME280;6778;48.136;11.386;2023-01-04T12:52:39;96099.41;;;11.08;54.52
13414;BME280;6778;48.136;11.386;2023-01-04T12:55:56;96091.13;;;11.05;54.99
13414;BME280;6778;48.136;11.386;2023-01-04T12:59:05;96107.25;;;11.08;55.07
13414;BME280;6778;48.136;11.386;2023-01-04T13:02:15;96110.47;;;11.04;54.59
13414;BME280;6778;48.136;11.386;2023-01-04T13:04:47;96108.28;;;11.14;54.24
13414;BME280;6778;48.136;11.386;2023-01-04T13:07:41;96101.78;;;11.03;54.25
13414;BME280;6778;48.136;11.386;2023-01-04T13:10:20;96105.25;;;11.10;53.92
13414;BME280;6778;48.136;11.386;2023-01-04T13:16:15;96106.06;;;11.11;53.67
13414;BME280;6778;48.136;11.386;2023-01-04T13:18:49;96110.72;;;11.29;54.42
13414;BME280;6778;48.136;11.386;2023-01-04T13:21:26;96111.72;;;11.28;53.33
13414;BME280;6778;48.136;11.386;2023-01-04T13:24:00;96096.59;;;11.36;53.83
13414;BME280;6778;48.136;11.386;2023-01-04T13:26:35;96089.94;;;11.20;53.46
13414;BME280;6778;48.136;11.386;2023-01-04T13:29:17;96086.69;;;11.05;53.36
13414;BME280;6778;48.136;11.386;2023-01-04T13:31:57;96087.91;;;11.09;53.22
13414;BME280;6778;48.136;11.386;2023-01-04T13:34:31;96094.59;;;11.25;53.04
13414;BME280;6778;48.136;11.386;2023-01-04T13:37:11;96086.09;;;11.30;53.49
13414;BME280;6778;48.136;11.386;2023-01-04T13:39:45;96089.34;;;11.25;53.36
13414;BME280;6778;48.136;11.386;2023-01-04T13:42:23;96086.91;;;11.24;52.53
13414;BME280;6778;48.136;11.386;2023-01-04T13:48:04;96089.94;;;11.20;52.58
13414;BME280;6778;48.136;11.386;2023-01-04T13:50:38;96080.25;;;11.14;52.42
13414;BME280;6778;48.136;11.386;2023-01-04T13:53:18;96085.06;;;11.24;51.51
13414;BME280;6778;48.136;11.386;2023-01-04T13:55:50;96082.66;;;11.09;51.23
13414;BME280;6778;48.136;11.386;2023-01-04T13:58:22;96069.75;;;11.21;51.53
13414;BME280;6778;48.136;11.386;2023-01-04T14:00:56;96073.38;;;11.20;50.85
13414;BME280;6778;48.136;11.386;2023-01-04T14:03:35;96067.13;;;11.28;50.72
13414;BME280;6778;48.136;11.386;2023-01-04T14:06:16;96077.84;;;11.26;50.75
13414;BME280;6778;48.136;11.386;2023-01-04T14:09:04;96078.03;;;11.31;50.90
13414;BME280;6778;48.136;11.386;2023-01-04T14:11:42;96070.34;;;11.36;50.53
13414;BME280;6778;48.136;11.386;2023-01-04T14:14:45;96069.56;;;11.29;49.85
13414;BME280;6778;48.136;11.386;2023-01-04T14:17:21;96075.22;;;11.33;49.28
13414;BME280;6778;48.136;11.386;2023-01-04T14:19:56;96063.72;;;11.34;50.44
13414;BME280;6778;48.136;11.386;2023-01-04T14:22:34;96076.22;;;11.38;50.29